createdAt,value
2023-04-29T00:00:47.842Z,18.67
2023-04-29T00:03:18.554Z,11.93
2023-04-29T00:05:47.751Z,14.83
2023-04-29T00:08:16.483Z,12.00
2023-04-29T00:10:46.859Z,10.83
2023-04-29T00:13:15.392Z,11.17
2023-04-29T00:15:44.016Z,13.70
2023-04-29T00:18:12.637Z,13.17
2023-04-29T00:20:41.507Z,11.27
2023-04-29T00:23:10.090Z,13.00
2023-04-29T00:25:39.422Z,10.83
2023-04-29T00:28:09.920Z,10.77
2023-04-29T00:30:38.490Z,11.10
2023-04-29T00:33:07.132Z,14.73
2023-04-29T00:35:35.671Z,10.90
2023-04-29T00:38:04.352Z,16.93
2023-04-29T00:40:32.954Z,16.90
2023-04-29T00:43:01.457Z,15.83
2023-04-29T00:45:31.615Z,12.13
2023-04-29T00:48:00.155Z,12.67
2023-04-29T00:50:29.667Z,11.70
2023-04-29T00:52:58.183Z,15.67
2023-04-29T00:55:27.820Z,13.97
2023-04-29T00:57:56.470Z,14.13
2023-04-29T01:00:26.524Z,11.77
2023-04-29T01:02:57.450Z,11.67
2023-04-29T01:05:26.148Z,17.37
2023-04-29T01:08:11.028Z,12.70
2023-04-29T01:10:43.802Z,19.83
2023-04-29T01:13:23.919Z,13.33
2023-04-29T01:16:02.088Z,14.07
2023-04-29T01:18:35.425Z,13.10
2023-04-29T01:21:04.214Z,14.73
2023-04-29T01:23:34.136Z,15.60
2023-04-29T01:26:08.464Z,12.50
2023-04-29T01:28:49.156Z,11.27
2023-04-29T01:31:29.184Z,10.97
2023-04-29T01:34:08.173Z,11.90
2023-04-29T01:36:46.907Z,10.77
2023-04-29T01:39:28.814Z,10.20
2023-04-29T01:42:04.967Z,10.43
2023-04-29T01:44:35.704Z,10.67
2023-04-29T01:47:04.956Z,9.60
2023-04-29T01:49:37.514Z,10.17
2023-04-29T01:52:06.178Z,10.13
2023-04-29T01:54:37.262Z,9.57
2023-04-29T01:57:05.917Z,12.73
2023-04-29T01:59:34.350Z,10.90
2023-04-29T02:02:02.830Z,8.97
2023-04-29T02:04:34.027Z,9.93
2023-04-29T02:07:04.225Z,13.47
2023-04-29T02:09:32.788Z,9.00
2023-04-29T02:12:04.817Z,11.67
2023-04-29T02:14:37.929Z,12.63
2023-04-29T02:17:06.668Z,9.57
2023-04-29T02:19:35.244Z,11.67
2023-04-29T02:22:03.699Z,9.63
2023-04-29T02:24:32.176Z,9.87
2023-04-29T02:27:06.018Z,13.80
2023-04-29T02:29:34.801Z,11.43
2023-04-29T02:32:03.411Z,9.43
2023-04-29T02:34:32.385Z,9.10
2023-04-29T02:37:00.868Z,13.87
2023-04-29T02:39:29.352Z,13.00
2023-04-29T02:41:57.827Z,9.33
2023-04-29T02:44:27.843Z,11.47
2023-04-29T02:46:56.325Z,8.63
2023-04-29T02:49:24.829Z,10.07
2023-04-29T02:51:53.536Z,11.57
2023-04-29T02:54:22.097Z,13.53
2023-04-29T02:56:51.008Z,13.43
2023-04-29T02:59:19.499Z,10.80
2023-04-29T03:01:49.403Z,11.20
2023-04-29T03:04:18.133Z,13.70
2023-04-29T03:06:46.944Z,9.90
2023-04-29T03:09:15.451Z,10.33
2023-04-29T03:11:43.993Z,15.37
2023-04-29T03:14:12.772Z,11.23
2023-04-29T03:16:41.334Z,13.50
2023-04-29T03:19:11.289Z,9.43
2023-04-29T03:21:39.783Z,12.03
2023-04-29T03:24:08.297Z,8.67
2023-04-29T03:26:36.749Z,11.13
2023-04-29T03:29:05.154Z,12.87
2023-04-29T03:31:34.393Z,9.63
2023-04-29T03:34:02.991Z,12.83
2023-04-29T03:36:35.290Z,9.53
2023-04-29T03:39:03.700Z,11.60
2023-04-29T03:41:32.273Z,11.50
2023-04-29T03:44:01.262Z,10.53
2023-04-29T03:46:29.970Z,13.03
2023-04-29T03:48:58.551Z,13.57
2023-04-29T03:51:27.567Z,12.20
2023-04-29T03:53:58.136Z,10.30
2023-04-29T03:56:26.864Z,11.17
2023-04-29T03:58:55.474Z,13.57
2023-04-29T04:01:23.897Z,16.50
2023-04-29T04:03:52.601Z,12.60
2023-04-29T04:06:21.550Z,16.13
2023-04-29T04:08:50.017Z,11.83
2023-04-29T04:11:19.940Z,11.17
2023-04-29T04:13:48.376Z,10.70
2023-04-29T04:16:17.041Z,12.90
2023-04-29T04:18:45.594Z,9.90
2023-04-29T04:21:14.642Z,9.37
2023-04-29T04:23:44.264Z,10.77
2023-04-29T04:26:12.880Z,8.53
2023-04-29T04:28:42.921Z,9.53
2023-04-29T04:31:11.887Z,9.13
2023-04-29T04:33:40.463Z,7.70
2023-04-29T04:36:09.360Z,11.53
2023-04-29T04:38:37.794Z,12.13
2023-04-29T04:41:08.933Z,10.80
2023-04-29T04:43:37.529Z,7.93
2023-04-29T04:46:13.680Z,9.13
2023-04-29T04:48:42.426Z,10.67
2023-04-29T04:51:11.673Z,10.93
2023-04-29T04:53:40.826Z,9.67
2023-04-29T04:56:10.046Z,9.03
2023-04-29T04:58:38.489Z,13.00
2023-04-29T05:01:07.132Z,9.97
2023-04-29T05:03:37.216Z,9.87
2023-04-29T05:06:05.993Z,13.27
2023-04-29T05:08:34.490Z,13.70
2023-04-29T05:11:02.935Z,10.03
2023-04-29T05:13:31.536Z,9.90
2023-04-29T05:16:00.043Z,8.70
2023-04-29T05:18:28.528Z,7.53
2023-04-29T05:21:00.276Z,11.40
2023-04-29T05:23:29.398Z,14.60
2023-04-29T05:25:58.002Z,11.07
2023-04-29T05:28:28.108Z,9.23
2023-04-29T05:30:56.944Z,9.93
2023-04-29T05:33:25.574Z,11.47
2023-04-29T05:35:54.150Z,14.33
2023-04-29T05:38:29.348Z,10.50
2023-04-29T05:40:58.243Z,10.47
2023-04-29T05:43:27.716Z,7.50
2023-04-29T05:45:56.464Z,8.00
2023-04-29T05:48:25.126Z,10.23
2023-04-29T05:50:54.431Z,9.87
2023-04-29T05:53:27.179Z,7.80
2023-04-29T05:55:55.772Z,11.27
2023-04-29T05:58:24.342Z,8.90
2023-04-29T06:00:53.071Z,10.23
2023-04-29T06:03:21.790Z,10.00
2023-04-29T06:05:50.709Z,8.40
2023-04-29T06:08:19.945Z,8.10
2023-04-29T06:10:52.142Z,9.00
2023-04-29T06:13:21.302Z,10.67
2023-04-29T06:15:50.020Z,6.83
2023-04-29T06:18:18.489Z,9.63
2023-04-29T06:20:47.075Z,9.93
2023-04-29T06:23:15.601Z,8.63
2023-04-29T06:25:44.449Z,11.27
2023-04-29T06:28:14.266Z,12.17
2023-04-29T06:30:42.756Z,13.80
2023-04-29T06:33:11.819Z,10.60
2023-04-29T06:35:41.648Z,9.83
2023-04-29T06:38:10.169Z,8.57
2023-04-29T06:40:38.742Z,8.13
2023-04-29T06:43:07.361Z,11.70
2023-04-29T06:45:37.537Z,12.73
2023-04-29T06:48:06.597Z,14.33
2023-04-29T06:50:35.149Z,12.13
2023-04-29T06:53:03.733Z,10.73
2023-04-29T06:55:35.275Z,7.70
2023-04-29T06:58:06.248Z,7.50
2023-04-29T07:00:34.860Z,8.10
2023-04-29T07:03:05.071Z,7.53
2023-04-29T07:05:33.797Z,11.63
2023-04-29T07:08:02.690Z,7.63
2023-04-29T07:10:31.139Z,15.10
2023-04-29T07:13:00.544Z,10.20
2023-04-29T07:15:30.548Z,35.37
2023-04-29T07:17:59.126Z,11.60
2023-04-29T07:20:28.971Z,13.93
2023-04-29T07:22:57.522Z,7.77
2023-04-29T07:25:26.061Z,9.30
2023-04-29T07:27:54.507Z,8.90
2023-04-29T07:30:23.601Z,10.43
2023-04-29T07:32:52.083Z,8.03
2023-04-29T07:35:21.098Z,8.67
2023-04-29T07:37:51.006Z,7.93
2023-04-29T07:40:19.572Z,8.63
2023-04-29T07:42:50.999Z,7.70
2023-04-29T07:45:22.145Z,9.63
2023-04-29T07:47:50.635Z,7.53
2023-04-29T07:50:19.378Z,8.90
2023-04-29T07:52:47.880Z,7.87
2023-04-29T07:55:18.117Z,9.87
2023-04-29T07:57:46.840Z,10.73
2023-04-29T08:00:15.932Z,9.60
2023-04-29T08:02:45.059Z,7.13
2023-04-29T08:05:13.948Z,7.80
2023-04-29T08:07:42.667Z,9.33
2023-04-29T08:10:11.770Z,8.17
2023-04-29T08:12:41.781Z,10.67
2023-04-29T08:15:11.005Z,11.37
2023-04-29T08:17:39.603Z,13.67
2023-04-29T08:20:09.591Z,12.97
2023-04-29T08:22:38.224Z,10.97
2023-04-29T08:25:08.944Z,9.83
2023-04-29T08:27:37.527Z,11.70
2023-04-29T08:30:09.210Z,11.63
2023-04-29T08:32:37.743Z,9.20
2023-04-29T08:35:06.922Z,11.97
2023-04-29T08:37:35.455Z,9.43
2023-04-29T08:40:04.042Z,10.97
2023-04-29T08:42:37.261Z,10.57
2023-04-29T08:45:08.744Z,10.90
2023-04-29T08:47:38.404Z,11.07
2023-04-29T08:50:08.839Z,9.43
2023-04-29T08:52:37.417Z,11.80
2023-04-29T08:55:07.184Z,11.17
2023-04-29T08:57:40.101Z,12.23
2023-04-29T09:00:12.000Z,10.00
2023-04-29T09:02:46.619Z,11.67
2023-04-29T09:05:15.409Z,13.63
2023-04-29T09:07:44.237Z,10.20
2023-04-29T09:10:13.403Z,10.90
2023-04-29T09:12:42.005Z,10.07
2023-04-29T09:15:12.715Z,9.90
2023-04-29T09:17:45.462Z,9.30
2023-04-29T09:20:29.537Z,10.37
2023-04-29T09:22:59.999Z,9.40
2023-04-29T09:25:28.976Z,11.50
2023-04-29T09:27:57.968Z,12.20
2023-04-29T09:30:28.017Z,9.47
2023-04-29T09:33:08.436Z,11.77
2023-04-29T09:35:37.756Z,10.00
2023-04-29T09:38:14.753Z,9.33
2023-04-29T09:40:58.218Z,10.23
2023-04-29T09:43:28.409Z,12.13
2023-04-29T09:45:58.576Z,12.33
2023-04-29T09:48:34.015Z,9.53
2023-04-29T09:51:04.261Z,10.20
2023-04-29T09:53:33.588Z,10.30
2023-04-29T09:56:03.937Z,11.00
2023-04-29T09:58:38.006Z,8.90
2023-04-29T10:01:08.810Z,9.20
2023-04-29T10:03:39.201Z,9.60
2023-04-29T10:06:08.768Z,9.63
2023-04-29T10:08:37.521Z,10.67
2023-04-29T10:11:06.522Z,13.90
2023-04-29T10:13:38.793Z,11.33
2023-04-29T10:16:17.359Z,11.47
2023-04-29T10:18:51.342Z,11.80
2023-04-29T10:21:23.761Z,10.07
2023-04-29T10:23:55.434Z,8.50
2023-04-29T10:26:27.890Z,9.03
2023-04-29T10:28:57.950Z,8.27
2023-04-29T10:31:30.908Z,8.50
2023-04-29T10:34:01.962Z,12.40
2023-04-29T10:36:31.788Z,9.90
2023-04-29T10:39:03.787Z,9.57
2023-04-29T10:41:38.230Z,8.77
2023-04-29T10:44:06.854Z,9.00
2023-04-29T10:46:38.408Z,9.63
2023-04-29T10:49:08.041Z,7.33
2023-04-29T10:51:40.933Z,8.23
2023-04-29T10:54:11.843Z,6.97
2023-04-29T10:56:42.317Z,6.00
2023-04-29T10:59:16.315Z,7.27
2023-04-29T11:01:50.815Z,6.77
2023-04-29T11:04:19.902Z,6.67
2023-04-29T11:06:50.003Z,4.97
2023-04-29T11:09:23.448Z,5.30
2023-04-29T11:12:03.066Z,5.97
2023-04-29T11:14:33.932Z,5.63
2023-04-29T11:17:06.327Z,4.63
2023-04-29T11:19:36.155Z,4.30
2023-04-29T11:22:13.807Z,4.57
2023-04-29T11:24:57.323Z,6.33
2023-04-29T11:27:27.764Z,4.33
2023-04-29T11:29:59.062Z,4.23
2023-04-29T11:32:30.188Z,3.60
2023-04-29T11:35:09.798Z,3.70
2023-04-29T11:37:38.595Z,4.03
2023-04-29T11:40:08.975Z,3.17
2023-04-29T11:42:37.859Z,4.20
2023-04-29T11:45:07.117Z,3.63
2023-04-29T11:47:37.573Z,3.40
2023-04-29T11:50:08.091Z,6.50
2023-04-29T11:52:38.893Z,6.00
2023-04-29T11:55:10.197Z,3.57
2023-04-29T11:57:39.478Z,3.37
2023-04-29T12:00:12.002Z,5.10
2023-04-29T12:02:47.233Z,3.67
2023-04-29T12:05:17.633Z,3.50
2023-04-29T12:07:46.544Z,3.83
2023-04-29T12:10:15.029Z,5.20
2023-04-29T12:12:45.660Z,3.10
2023-04-29T12:15:14.957Z,3.37
2023-04-29T12:17:46.764Z,2.63
2023-04-29T12:20:15.610Z,3.03
2023-04-29T12:22:45.268Z,2.57
2023-04-29T12:25:17.121Z,3.33
2023-04-29T12:27:45.704Z,2.30
2023-04-29T12:30:14.371Z,2.27
2023-04-29T12:32:42.978Z,3.27
2023-04-29T12:35:20.386Z,2.77
2023-04-29T12:37:52.143Z,2.73
2023-04-29T12:40:21.389Z,2.83
2023-04-29T12:42:50.162Z,2.90
2023-04-29T12:45:29.309Z,3.03
2023-04-29T12:47:59.955Z,2.90
2023-04-29T12:50:34.576Z,2.83
2023-04-29T12:53:03.755Z,2.63
2023-04-29T12:55:34.871Z,2.40
2023-04-29T12:58:03.761Z,2.70
2023-04-29T13:00:32.777Z,4.57
2023-04-29T13:03:01.671Z,4.33
2023-04-29T13:05:30.354Z,3.90
2023-04-29T13:08:00.292Z,3.23
2023-04-29T13:10:29.704Z,3.43
2023-04-29T13:12:58.599Z,3.87
2023-04-29T13:15:27.415Z,5.87
2023-04-29T13:17:56.413Z,3.90
2023-04-29T13:20:25.052Z,2.70
2023-04-29T13:22:53.467Z,3.07
2023-04-29T13:25:23.396Z,1.60
2023-04-29T13:27:52.165Z,1.97
2023-04-29T13:30:20.952Z,2.23
2023-04-29T13:32:53.814Z,1.67
2023-04-29T13:35:25.189Z,1.10
2023-04-29T13:37:53.664Z,1.50
2023-04-29T13:40:27.576Z,1.50
2023-04-29T13:43:05.598Z,1.50
2023-04-29T13:45:39.830Z,1.50
2023-04-29T13:48:21.083Z,1.97
2023-04-29T13:51:17.482Z,1.33
2023-04-29T13:57:02.759Z,1.23
2023-04-29T14:02:21.493Z,1.83
2023-04-29T14:04:28.308Z,1.90
2023-04-29T14:06:57.960Z,1.47
2023-04-29T14:09:26.593Z,1.63
2023-04-29T14:11:56.508Z,1.50
2023-04-29T14:14:24.975Z,2.40
2023-04-29T14:16:53.451Z,4.63
2023-04-29T14:19:21.931Z,3.67
2023-04-29T14:21:50.414Z,2.00
2023-04-29T14:24:18.816Z,2.67
2023-04-29T14:26:47.301Z,6.40
2023-04-29T14:29:17.208Z,2.47
2023-04-29T14:31:45.941Z,3.03
2023-04-29T14:34:14.727Z,2.40
2023-04-29T14:36:45.394Z,3.40
2023-04-29T14:39:15.085Z,2.53
2023-04-29T14:41:43.672Z,2.77
2023-04-29T14:44:14.812Z,2.40
2023-04-29T14:46:44.777Z,1.50
2023-04-29T14:49:15.582Z,2.40
2023-04-29T14:51:44.073Z,1.57
2023-04-29T14:54:12.817Z,2.23
2023-04-29T14:56:41.430Z,2.80
2023-04-29T14:59:10.220Z,4.13
2023-04-29T15:01:40.025Z,7.67
2023-04-29T15:04:10.238Z,5.43
2023-04-29T15:06:39.107Z,1.93
2023-04-29T15:09:08.132Z,3.20
2023-04-29T15:11:36.743Z,2.93
2023-04-29T15:14:05.271Z,2.93
2023-04-29T15:16:33.744Z,3.73
2023-04-29T15:19:02.391Z,3.90
2023-04-29T15:21:33.361Z,4.30
2023-04-29T15:24:03.348Z,3.77
2023-04-29T15:26:31.898Z,4.10
2023-04-29T15:29:00.450Z,3.60
2023-04-29T15:31:30.680Z,4.77
2023-04-29T15:33:59.400Z,3.23
2023-04-29T15:36:32.887Z,3.57
2023-04-29T15:39:01.436Z,4.53
2023-04-29T15:41:30.156Z,6.07
2023-04-29T15:43:59.235Z,9.70
2023-04-29T15:46:28.960Z,4.00
2023-04-29T15:48:57.456Z,2.90
2023-04-29T15:51:26.461Z,3.20
2023-04-29T15:53:56.793Z,2.53
2023-04-29T15:56:26.088Z,4.03
2023-04-29T15:58:54.855Z,2.93
2023-04-29T16:01:23.880Z,3.03
2023-04-29T16:03:52.583Z,3.07
2023-04-29T16:06:23.820Z,3.00
2023-04-29T16:08:52.915Z,7.20
2023-04-29T16:11:23.248Z,4.73
2023-04-29T16:13:52.048Z,4.20
2023-04-29T16:16:21.057Z,4.37
2023-04-29T16:18:49.724Z,7.60
2023-04-29T16:21:18.842Z,5.30
2023-04-29T16:23:48.144Z,5.53
2023-04-29T16:26:17.848Z,7.00
2023-04-29T16:28:47.937Z,5.50
2023-04-29T16:31:17.732Z,4.60
2023-04-29T16:33:46.584Z,5.50
2023-04-29T16:36:15.489Z,6.37
2023-04-29T16:38:44.575Z,5.27
2023-04-29T16:41:13.257Z,5.33
2023-04-29T16:43:41.964Z,5.40
2023-04-29T16:46:12.549Z,6.57
2023-04-29T16:48:42.525Z,7.83
2023-04-29T16:51:11.390Z,7.03
2023-04-29T16:53:39.894Z,7.60
2023-04-29T16:56:08.791Z,30.23
2023-04-29T16:58:37.518Z,5.93
2023-04-29T17:01:08.135Z,5.10
2023-04-29T17:03:38.727Z,5.20
2023-04-29T17:06:07.924Z,5.13
2023-04-29T17:08:37.049Z,5.87
2023-04-29T17:11:06.614Z,5.27
2023-04-29T17:13:35.355Z,5.10
2023-04-29T17:16:04.222Z,5.80
2023-04-29T17:18:33.669Z,5.13
2023-04-29T17:21:04.290Z,5.73
2023-04-29T17:23:33.337Z,4.90
2023-04-29T17:26:05.558Z,4.73
2023-04-29T17:28:34.813Z,4.50
2023-04-29T17:31:03.884Z,3.87
2023-04-29T17:33:35.761Z,3.50
2023-04-29T17:36:08.731Z,3.50
2023-04-29T17:38:38.178Z,3.50
2023-04-29T17:41:06.937Z,3.13
2023-04-29T17:43:35.810Z,4.27
2023-04-29T17:46:04.459Z,3.83
2023-04-29T17:48:32.973Z,25.10
2023-04-29T17:51:01.484Z,3.50
2023-04-29T17:53:33.479Z,4.87
2023-04-29T17:56:02.113Z,3.50
2023-04-29T17:58:30.692Z,5.40
2023-04-29T18:00:59.486Z,3.57
2023-04-29T18:03:30.515Z,4.17
2023-04-29T18:05:59.086Z,4.20
2023-04-29T18:08:28.256Z,4.10
2023-04-29T18:10:58.182Z,5.93
2023-04-29T18:13:27.311Z,6.20
2023-04-29T18:15:56.197Z,5.57
2023-04-29T18:18:24.643Z,4.87
2023-04-29T18:20:53.743Z,5.47
2023-04-29T18:23:22.932Z,5.90
2023-04-29T18:25:51.366Z,6.90
2023-04-29T18:28:25.386Z,6.37
2023-04-29T18:30:55.678Z,5.87
2023-04-29T18:33:26.776Z,7.03
2023-04-29T18:35:55.969Z,7.83
2023-04-29T18:38:24.731Z,9.43
2023-04-29T18:40:53.137Z,9.13
2023-04-29T18:43:28.482Z,10.17
2023-04-29T18:45:57.308Z,12.60
2023-04-29T18:48:27.991Z,10.67
2023-04-29T18:50:59.572Z,12.63
2023-04-29T18:53:28.320Z,16.57
2023-04-29T18:55:56.854Z,16.03
2023-04-29T18:58:27.690Z,16.50
2023-04-29T19:00:57.958Z,17.37
2023-04-29T19:03:27.396Z,17.37
2023-04-29T19:05:55.986Z,19.37
2023-04-29T19:08:24.770Z,22.63
2023-04-29T19:10:54.379Z,23.37
2023-04-29T19:13:22.793Z,22.90
2023-04-29T19:15:54.760Z,25.63
2023-04-29T19:18:24.032Z,26.10
2023-04-29T19:20:54.287Z,27.73
2023-04-29T19:23:22.928Z,27.47
2023-04-29T19:25:54.374Z,26.33
2023-04-29T19:28:22.937Z,28.63
2023-04-29T19:30:52.916Z,25.70
2023-04-29T19:33:22.104Z,133.33
2023-04-29T19:35:51.201Z,24.03
2023-04-29T19:38:20.016Z,27.70
2023-04-29T19:40:49.206Z,36.70
2023-04-29T19:43:18.243Z,130.03
2023-04-29T19:45:46.894Z,49.13
2023-04-29T19:48:17.067Z,31.43
2023-04-29T19:50:45.627Z,59.00
2023-04-29T19:53:14.527Z,31.33
2023-04-29T19:55:43.454Z,24.03
2023-04-29T19:58:12.047Z,22.60
2023-04-29T20:00:40.785Z,26.50
2023-04-29T20:03:09.672Z,41.10
2023-04-29T20:05:41.527Z,25.40
2023-04-29T20:08:10.753Z,27.83
2023-04-29T20:10:39.238Z,25.93
2023-04-29T20:13:08.120Z,29.13
2023-04-29T20:15:37.826Z,27.97
2023-04-29T20:18:06.963Z,29.60
2023-04-29T20:20:42.712Z,25.23
2023-04-29T20:23:11.585Z,31.23
2023-04-29T20:25:40.331Z,27.87
2023-04-29T20:28:09.396Z,28.53
2023-04-29T20:30:38.177Z,26.87
2023-04-29T20:33:08.670Z,29.60
2023-04-29T20:35:37.981Z,30.70
2023-04-29T20:38:08.750Z,32.53
2023-04-29T20:40:37.335Z,27.37
2023-04-29T20:43:06.022Z,27.70
2023-04-29T20:45:34.475Z,25.93
2023-04-29T20:48:04.361Z,27.03
2023-04-29T20:50:33.117Z,27.23
2023-04-29T20:53:02.316Z,26.73
2023-04-29T20:55:33.028Z,45.80
2023-04-29T20:58:01.753Z,32.53
2023-04-29T21:00:30.450Z,31.63
2023-04-29T21:02:59.149Z,28.47
2023-04-29T21:05:27.824Z,27.43
2023-04-29T21:07:56.318Z,27.07
2023-04-29T21:10:25.093Z,26.07
2023-04-29T21:12:55.669Z,23.87
2023-04-29T21:15:24.647Z,40.20
2023-04-29T21:17:53.212Z,27.00
2023-04-29T21:20:24.815Z,28.00
2023-04-29T21:22:55.893Z,23.17
2023-04-29T21:25:26.769Z,35.70
2023-04-29T21:27:56.891Z,20.70
2023-04-29T21:30:26.618Z,20.93
2023-04-29T21:32:55.372Z,20.53
2023-04-29T21:35:25.287Z,22.87
2023-04-29T21:37:53.905Z,20.47
2023-04-29T21:40:23.140Z,20.17
2023-04-29T21:42:52.520Z,19.97
2023-04-29T21:45:23.247Z,21.13
2023-04-29T21:47:52.351Z,18.23
2023-04-29T21:50:21.423Z,16.53
2023-04-29T21:52:50.885Z,15.87
2023-04-29T21:55:19.931Z,17.60
2023-04-29T21:57:48.340Z,17.77
2023-04-29T22:00:33.262Z,15.40
2023-04-29T22:03:04.056Z,16.43
2023-04-29T22:05:33.485Z,17.90
2023-04-29T22:08:03.498Z,20.37
2023-04-29T22:10:32.333Z,18.97
2023-04-29T22:13:01.359Z,17.00
2023-04-29T22:15:30.045Z,17.37
2023-04-29T22:17:58.681Z,17.43
2023-04-29T22:20:29.277Z,15.30
2023-04-29T22:22:58.428Z,15.50
2023-04-29T22:25:27.071Z,17.63
2023-04-29T22:27:55.737Z,19.53
2023-04-29T22:30:24.318Z,16.57
2023-04-29T22:32:52.980Z,17.80
2023-04-29T22:35:21.682Z,16.10
2023-04-29T22:37:52.055Z,13.50
2023-04-29T22:40:20.746Z,14.50
2023-04-29T22:42:49.343Z,15.87
2023-04-29T22:45:18.439Z,15.27
2023-04-29T22:47:47.263Z,15.07
2023-04-29T22:50:16.134Z,11.30
2023-04-29T22:52:44.925Z,14.60
2023-04-29T22:55:15.441Z,17.10
2023-04-29T22:57:44.038Z,14.13
2023-04-29T23:00:14.583Z,14.77
2023-04-29T23:02:43.609Z,12.17
2023-04-29T23:05:12.163Z,12.80
2023-04-29T23:07:41.454Z,11.77
2023-04-29T23:10:10.677Z,11.30
2023-04-29T23:12:40.685Z,10.97
2023-04-29T23:15:10.144Z,16.33
2023-04-29T23:17:40.005Z,11.43
2023-04-29T23:20:09.830Z,11.63
2023-04-29T23:22:38.350Z,11.13
2023-04-29T23:25:07.480Z,12.77
2023-04-29T23:27:36.096Z,9.73
2023-04-29T23:30:07.620Z,10.90
2023-04-29T23:32:36.923Z,9.93
2023-04-29T23:35:06.384Z,12.83
2023-04-29T23:37:35.093Z,13.13
2023-04-29T23:40:05.083Z,12.43
2023-04-29T23:42:33.897Z,10.57
2023-04-29T23:45:02.618Z,11.33
2023-04-29T23:47:32.953Z,13.33
2023-04-29T23:50:01.510Z,12.13
2023-04-29T23:52:30.338Z,13.93
2023-04-29T23:54:58.857Z,10.77
2023-04-29T23:57:28.076Z,10.37
2023-04-29T23:59:57.318Z,11.23
